sensor_id;sensor_type;location;lat;lon;timestamp;P1;durP1;ratioP1;P2;durP2;ratioP2
45274;SDS011;31019;43.780;25.948;2023-02-28T00:00:37;42.05;;;38.03;;
45274;SDS011;31019;43.780;25.948;2023-02-28T00:03:04;39.17;;;35.08;;
45274;SDS011;31019;43.780;25.948;2023-02-28T00:05:31;40.72;;;36.58;;
45274;SDS011;31019;43.780;25.948;2023-02-28T00:07:58;44.35;;;39.85;;
45274;SDS011;31019;43.780;25.948;2023-02-28T00:10:26;47.13;;;42.53;;
45274;SDS011;31019;43.780;25.948;2023-02-28T00:12:54;39.70;;;35.45;;
45274;SDS011;31019;43.780;25.948;2023-02-28T00:15:23;41.80;;;37.55;;
45274;SDS011;31019;43.780;25.948;2023-02-28T00:17:51;37.60;;;33.60;;
45274;SDS011;31019;43.780;25.948;2023-02-28T00:20:18;38.00;;;34.00;;
45274;SDS011;31019;43.780;25.948;2023-02-28T00:22:46;43.17;;;38.78;;
45274;SDS011;31019;43.780;25.948;2023-02-28T00:25:15;43.67;;;39.15;;
45274;SDS011;31019;43.780;25.948;2023-02-28T00:27:44;46.35;;;41.95;;
45274;SDS011;31019;43.780;25.948;2023-02-28T00:30:12;41.13;;;36.92;;
45274;SDS011;31019;43.780;25.948;2023-02-28T00:32:40;40.58;;;36.28;;
45274;SDS011;31019;43.780;25.948;2023-02-28T00:35:09;39.65;;;35.40;;
45274;SDS011;31019;43.780;25.948;2023-02-28T00:37:36;48.20;;;43.35;;
45274;SDS011;31019;43.780;25.948;2023-02-28T00:40:03;44.35;;;39.97;;
45274;SDS011;31019;43.780;25.948;2023-02-28T00:42:32;39.65;;;35.63;;
45274;SDS011;31019;43.780;25.948;2023-02-28T00:44:58;39.72;;;35.42;;
45274;SDS011;31019;43.780;25.948;2023-02-28T00:47:25;46.50;;;41.80;;
45274;SDS011;31019;43.780;25.948;2023-02-28T00:49:52;51.03;;;46.15;;
45274;SDS011;31019;43.780;25.948;2023-02-28T00:52:20;49.13;;;44.33;;
45274;SDS011;31019;43.780;25.948;2023-02-28T00:54:47;40.38;;;36.08;;
45274;SDS011;31019;43.780;25.948;2023-02-28T00:57:14;42.05;;;35.40;;
45274;SDS011;31019;43.780;25.948;2023-02-28T00:59:41;46.20;;;41.60;;
45274;SDS011;31019;43.780;25.948;2023-02-28T01:02:07;45.65;;;41.05;;
45274;SDS011;31019;43.780;25.948;2023-02-28T01:04:34;41.50;;;37.00;;
45274;SDS011;31019;43.780;25.948;2023-02-28T01:07:01;43.58;;;39.03;;
45274;SDS011;31019;43.780;25.948;2023-02-28T01:09:29;45.47;;;40.78;;
45274;SDS011;31019;43.780;25.948;2023-02-28T01:11:56;41.75;;;37.45;;
45274;SDS011;31019;43.780;25.948;2023-02-28T01:14:23;45.70;;;41.13;;
45274;SDS011;31019;43.780;25.948;2023-02-28T01:16:49;44.00;;;38.38;;
45274;SDS011;31019;43.780;25.948;2023-02-28T01:19:16;42.58;;;38.15;;
45274;SDS011;31019;43.780;25.948;2023-02-28T01:21:43;46.28;;;41.60;;
45274;SDS011;31019;43.780;25.948;2023-02-28T01:24:10;47.50;;;42.60;;
45274;SDS011;31019;43.780;25.948;2023-02-28T01:26:38;46.00;;;41.10;;
45274;SDS011;31019;43.780;25.948;2023-02-28T01:29:04;48.80;;;43.60;;
45274;SDS011;31019;43.780;25.948;2023-02-28T01:31:31;50.80;;;46.00;;
45274;SDS011;31019;43.780;25.948;2023-02-28T01:33:58;48.58;;;43.80;;
45274;SDS011;31019;43.780;25.948;2023-02-28T01:36:25;41.70;;;37.22;;
45274;SDS011;31019;43.780;25.948;2023-02-28T01:38:52;43.85;;;39.35;;
45274;SDS011;31019;43.780;25.948;2023-02-28T01:41:20;43.55;;;38.40;;
45274;SDS011;31019;43.780;25.948;2023-02-28T01:44:00;45.35;;;40.85;;
45274;SDS011;31019;43.780;25.948;2023-02-28T01:46:29;42.72;;;38.22;;
45274;SDS011;31019;43.780;25.948;2023-02-28T01:48:58;41.55;;;37.05;;
45274;SDS011;31019;43.780;25.948;2023-02-28T01:51:32;42.38;;;37.90;;
45274;SDS011;31019;43.780;25.948;2023-02-28T01:54:03;43.65;;;39.35;;
45274;SDS011;31019;43.780;25.948;2023-02-28T01:56:38;47.67;;;42.92;;
45274;SDS011;31019;43.780;25.948;2023-02-28T01:59:12;47.72;;;42.80;;
45274;SDS011;31019;43.780;25.948;2023-02-28T02:01:45;44.75;;;40.25;;
45274;SDS011;31019;43.780;25.948;2023-02-28T02:04:12;46.40;;;41.83;;
45274;SDS011;31019;43.780;25.948;2023-02-28T02:06:40;43.75;;;39.45;;
45274;SDS011;31019;43.780;25.948;2023-02-28T02:09:09;45.80;;;41.10;;
45274;SDS011;31019;43.780;25.948;2023-02-28T02:11:36;40.85;;;36.65;;
45274;SDS011;31019;43.780;25.948;2023-02-28T02:14:10;47.53;;;42.90;;
45274;SDS011;31019;43.780;25.948;2023-02-28T02:23:06;40.58;;;36.28;;
45274;SDS011;31019;43.780;25.948;2023-02-28T02:25:53;45.30;;;40.65;;
45274;SDS011;31019;43.780;25.948;2023-02-28T02:31:29;46.33;;;41.30;;
45274;SDS011;31019;43.780;25.948;2023-02-28T02:37:04;42.95;;;38.50;;
45274;SDS011;31019;43.780;25.948;2023-02-28T02:39:42;46.10;;;41.40;;
45274;SDS011;31019;43.780;25.948;2023-02-28T02:42:18;46.47;;;41.88;;
45274;SDS011;31019;43.780;25.948;2023-02-28T02:44:54;49.20;;;44.05;;
45274;SDS011;31019;43.780;25.948;2023-02-28T02:47:26;54.38;;;49.38;;
45274;SDS011;31019;43.780;25.948;2023-02-28T02:49:57;47.95;;;43.33;;
45274;SDS011;31019;43.780;25.948;2023-02-28T02:52:29;48.42;;;43.63;;
45274;SDS011;31019;43.780;25.948;2023-02-28T02:55:00;43.72;;;39.10;;
45274;SDS011;31019;43.780;25.948;2023-02-28T02:57:30;43.47;;;39.03;;
45274;SDS011;31019;43.780;25.948;2023-02-28T03:00:00;57.25;;;51.67;;
45274;SDS011;31019;43.780;25.948;2023-02-28T03:02:30;45.50;;;40.70;;
45274;SDS011;31019;43.780;25.948;2023-02-28T03:05:01;46.25;;;41.35;;
45274;SDS011;31019;43.780;25.948;2023-02-28T03:07:30;45.88;;;41.20;;
45274;SDS011;31019;43.780;25.948;2023-02-28T03:09:57;43.50;;;39.10;;
45274;SDS011;31019;43.780;25.948;2023-02-28T03:12:33;53.83;;;48.63;;
45274;SDS011;31019;43.780;25.948;2023-02-28T03:15:08;51.38;;;46.33;;
45274;SDS011;31019;43.780;25.948;2023-02-28T03:17:53;43.65;;;37.95;;
45274;SDS011;31019;43.780;25.948;2023-02-28T03:20:35;43.58;;;38.92;;
45274;SDS011;31019;43.780;25.948;2023-02-28T03:23:10;47.83;;;43.05;;
45274;SDS011;31019;43.780;25.948;2023-02-28T03:25:45;45.70;;;41.05;;
45274;SDS011;31019;43.780;25.948;2023-02-28T03:28:22;43.10;;;38.53;;
45274;SDS011;31019;43.780;25.948;2023-02-28T03:30:57;44.28;;;39.85;;
45274;SDS011;31019;43.780;25.948;2023-02-28T03:33:28;46.10;;;41.35;;
45274;SDS011;31019;43.780;25.948;2023-02-28T03:36:02;43.67;;;39.03;;
45274;SDS011;31019;43.780;25.948;2023-02-28T03:38:32;36.40;;;32.10;;
45274;SDS011;31019;43.780;25.948;2023-02-28T03:41:04;40.95;;;36.47;;
45274;SDS011;31019;43.780;25.948;2023-02-28T03:43:36;41.80;;;37.50;;
45274;SDS011;31019;43.780;25.948;2023-02-28T03:46:08;39.40;;;35.00;;
45274;SDS011;31019;43.780;25.948;2023-02-28T03:48:40;41.83;;;36.03;;
45274;SDS011;31019;43.780;25.948;2023-02-28T03:51:12;43.10;;;38.03;;
45274;SDS011;31019;43.780;25.948;2023-02-28T03:53:44;45.38;;;40.67;;
45274;SDS011;31019;43.780;25.948;2023-02-28T03:58:47;42.13;;;37.65;;
45274;SDS011;31019;43.780;25.948;2023-02-28T04:01:19;43.00;;;37.38;;
45274;SDS011;31019;43.780;25.948;2023-02-28T04:03:50;47.42;;;42.53;;
45274;SDS011;31019;43.780;25.948;2023-02-28T04:06:18;45.78;;;38.53;;
45274;SDS011;31019;43.780;25.948;2023-02-28T04:08:47;45.50;;;39.75;;
45274;SDS011;31019;43.780;25.948;2023-02-28T04:11:18;44.97;;;37.38;;
45274;SDS011;31019;43.780;25.948;2023-02-28T04:13:47;41.85;;;36.42;;
45274;SDS011;31019;43.780;25.948;2023-02-28T04:16:14;48.05;;;38.10;;
45274;SDS011;31019;43.780;25.948;2023-02-28T04:18:41;46.83;;;39.40;;
45274;SDS011;31019;43.780;25.948;2023-02-28T04:21:08;50.70;;;39.88;;
45274;SDS011;31019;43.780;25.948;2023-02-28T04:23:37;53.38;;;42.85;;
45274;SDS011;31019;43.780;25.948;2023-02-28T04:26:04;49.97;;;41.42;;
45274;SDS011;31019;43.780;25.948;2023-02-28T04:28:31;43.60;;;34.72;;
45274;SDS011;31019;43.780;25.948;2023-02-28T04:30:59;43.60;;;36.08;;
45274;SDS011;31019;43.780;25.948;2023-02-28T04:33:27;47.67;;;40.70;;
45274;SDS011;31019;43.780;25.948;2023-02-28T04:35:58;49.20;;;40.13;;
45274;SDS011;31019;43.780;25.948;2023-02-28T04:38:25;51.17;;;39.58;;
45274;SDS011;31019;43.780;25.948;2023-02-28T04:40:53;54.70;;;43.78;;
45274;SDS011;31019;43.780;25.948;2023-02-28T04:43:23;52.25;;;41.58;;
45274;SDS011;31019;43.780;25.948;2023-02-28T04:45:50;53.15;;;40.65;;
45274;SDS011;31019;43.780;25.948;2023-02-28T04:48:16;52.88;;;39.53;;
45274;SDS011;31019;43.780;25.948;2023-02-28T04:50:43;54.92;;;42.50;;
45274;SDS011;31019;43.780;25.948;2023-02-28T04:53:10;52.70;;;40.83;;
45274;SDS011;31019;43.780;25.948;2023-02-28T04:55:36;48.47;;;39.58;;
45274;SDS011;31019;43.780;25.948;2023-02-28T04:58:06;55.67;;;41.83;;
45274;SDS011;31019;43.780;25.948;2023-02-28T05:00:33;48.97;;;37.00;;
45274;SDS011;31019;43.780;25.948;2023-02-28T05:02:59;55.60;;;39.40;;
45274;SDS011;31019;43.780;25.948;2023-02-28T05:05:26;53.45;;;38.10;;
45274;SDS011;31019;43.780;25.948;2023-02-28T05:07:53;50.60;;;37.85;;
45274;SDS011;31019;43.780;25.948;2023-02-28T05:10:20;51.13;;;38.33;;
45274;SDS011;31019;43.780;25.948;2023-02-28T05:12:47;51.58;;;36.83;;
45274;SDS011;31019;43.780;25.948;2023-02-28T05:15:16;53.03;;;40.40;;
45274;SDS011;31019;43.780;25.948;2023-02-28T05:17:43;61.05;;;45.85;;
45274;SDS011;31019;43.780;25.948;2023-02-28T05:20:10;45.05;;;33.63;;
45274;SDS011;31019;43.780;25.948;2023-02-28T05:22:38;52.58;;;40.28;;
45274;SDS011;31019;43.780;25.948;2023-02-28T05:25:05;60.05;;;44.80;;
45274;SDS011;31019;43.780;25.948;2023-02-28T05:27:33;58.97;;;43.17;;
45274;SDS011;31019;43.780;25.948;2023-02-28T05:29:59;57.17;;;41.42;;
45274;SDS011;31019;43.780;25.948;2023-02-28T05:32:29;53.22;;;39.83;;
45274;SDS011;31019;43.780;25.948;2023-02-28T05:34:56;56.38;;;40.00;;
45274;SDS011;31019;43.780;25.948;2023-02-28T05:37:23;51.05;;;37.22;;
45274;SDS011;31019;43.780;25.948;2023-02-28T05:39:49;62.55;;;44.42;;
45274;SDS011;31019;43.780;25.948;2023-02-28T05:42:16;53.75;;;39.78;;
45274;SDS011;31019;43.780;25.948;2023-02-28T05:44:43;52.53;;;37.50;;
45274;SDS011;31019;43.780;25.948;2023-02-28T05:47:10;49.13;;;36.50;;
45274;SDS011;31019;43.780;25.948;2023-02-28T05:49:39;55.13;;;37.72;;
45274;SDS011;31019;43.780;25.948;2023-02-28T05:52:05;52.20;;;37.58;;
45274;SDS011;31019;43.780;25.948;2023-02-28T05:54:32;53.13;;;38.03;;
45274;SDS011;31019;43.780;25.948;2023-02-28T05:56:59;49.33;;;37.67;;
45274;SDS011;31019;43.780;25.948;2023-02-28T05:59:26;51.42;;;39.10;;
45274;SDS011;31019;43.780;25.948;2023-02-28T06:01:52;54.28;;;40.13;;
45274;SDS011;31019;43.780;25.948;2023-02-28T06:04:20;50.85;;;36.15;;
45274;SDS011;31019;43.780;25.948;2023-02-28T06:06:48;55.75;;;37.78;;
45274;SDS011;31019;43.780;25.948;2023-02-28T06:09:16;49.10;;;37.08;;
45274;SDS011;31019;43.780;25.948;2023-02-28T06:11:44;55.20;;;40.22;;
45274;SDS011;31019;43.780;25.948;2023-02-28T06:14:12;53.97;;;40.45;;
45274;SDS011;31019;43.780;25.948;2023-02-28T06:16:42;58.28;;;40.10;;
45274;SDS011;31019;43.780;25.948;2023-02-28T06:19:09;60.47;;;43.85;;
45274;SDS011;31019;43.780;25.948;2023-02-28T06:21:36;56.72;;;41.83;;
45274;SDS011;31019;43.780;25.948;2023-02-28T06:24:05;46.83;;;35.25;;
45274;SDS011;31019;43.780;25.948;2023-02-28T06:26:32;53.13;;;38.58;;
45274;SDS011;31019;43.780;25.948;2023-02-28T06:28:59;51.63;;;38.22;;
45274;SDS011;31019;43.780;25.948;2023-02-28T06:31:26;52.72;;;37.50;;
45274;SDS011;31019;43.780;25.948;2023-02-28T06:33:54;55.90;;;41.70;;
45274;SDS011;31019;43.780;25.948;2023-02-28T06:36:21;52.60;;;40.40;;
45274;SDS011;31019;43.780;25.948;2023-02-28T06:38:48;50.53;;;40.10;;
45274;SDS011;31019;43.780;25.948;2023-02-28T06:41:21;58.00;;;42.75;;
45274;SDS011;31019;43.780;25.948;2023-02-28T06:43:48;56.53;;;40.33;;
45274;SDS011;31019;43.780;25.948;2023-02-28T06:46:16;51.95;;;38.83;;
45274;SDS011;31019;43.780;25.948;2023-02-28T06:48:43;58.22;;;40.95;;
45274;SDS011;31019;43.780;25.948;2023-02-28T06:51:10;54.15;;;41.50;;
45274;SDS011;31019;43.780;25.948;2023-02-28T06:53:39;54.42;;;40.63;;
45274;SDS011;31019;43.780;25.948;2023-02-28T06:56:06;49.85;;;38.88;;
45274;SDS011;31019;43.780;25.948;2023-02-28T06:58:36;49.97;;;38.75;;
45274;SDS011;31019;43.780;25.948;2023-02-28T07:01:04;48.55;;;40.00;;
45274;SDS011;31019;43.780;25.948;2023-02-28T07:03:31;58.42;;;43.25;;
45274;SDS011;31019;43.780;25.948;2023-02-28T07:05:58;55.65;;;38.97;;
45274;SDS011;31019;43.780;25.948;2023-02-28T07:08:26;54.95;;;39.35;;
45274;SDS011;31019;43.780;25.948;2023-02-28T07:10:53;56.58;;;41.25;;
45274;SDS011;31019;43.780;25.948;2023-02-28T07:13:20;53.90;;;41.78;;
45274;SDS011;31019;43.780;25.948;2023-02-28T07:15:54;55.38;;;43.30;;
45274;SDS011;31019;43.780;25.948;2023-02-28T07:18:21;58.07;;;44.63;;
45274;SDS011;31019;43.780;25.948;2023-02-28T07:20:48;58.97;;;43.95;;
45274;SDS011;31019;43.780;25.948;2023-02-28T07:23:15;61.47;;;46.78;;
45274;SDS011;31019;43.780;25.948;2023-02-28T07:25:42;59.45;;;44.53;;
45274;SDS011;31019;43.780;25.948;2023-02-28T07:28:08;57.35;;;45.20;;
45274;SDS011;31019;43.780;25.948;2023-02-28T07:30:35;57.55;;;42.53;;
45274;SDS011;31019;43.780;25.948;2023-02-28T07:33:03;59.17;;;42.70;;
45274;SDS011;31019;43.780;25.948;2023-02-28T07:35:30;53.67;;;41.65;;
45274;SDS011;31019;43.780;25.948;2023-02-28T07:37:58;50.67;;;41.45;;
45274;SDS011;31019;43.780;25.948;2023-02-28T07:40:25;55.70;;;41.95;;
45274;SDS011;31019;43.780;25.948;2023-02-28T07:42:52;58.20;;;42.10;;
45274;SDS011;31019;43.780;25.948;2023-02-28T07:45:19;57.60;;;38.63;;
45274;SDS011;31019;43.780;25.948;2023-02-28T07:47:46;59.70;;;39.92;;
45274;SDS011;31019;43.780;25.948;2023-02-28T07:50:14;52.88;;;40.13;;
45274;SDS011;31019;43.780;25.948;2023-02-28T07:52:42;52.38;;;39.05;;
45274;SDS011;31019;43.780;25.948;2023-02-28T07:55:09;58.00;;;42.97;;
45274;SDS011;31019;43.780;25.948;2023-02-28T07:57:36;59.30;;;42.10;;
45274;SDS011;31019;43.780;25.948;2023-02-28T08:00:03;52.28;;;37.85;;
45274;SDS011;31019;43.780;25.948;2023-02-28T08:02:31;46.97;;;35.55;;
45274;SDS011;31019;43.780;25.948;2023-02-28T08:04:59;51.72;;;40.03;;
45274;SDS011;31019;43.780;25.948;2023-02-28T08:07:27;45.40;;;36.35;;
45274;SDS011;31019;43.780;25.948;2023-02-28T08:09:54;52.65;;;38.53;;
45274;SDS011;31019;43.780;25.948;2023-02-28T08:12:21;55.40;;;43.13;;
45274;SDS011;31019;43.780;25.948;2023-02-28T08:14:49;54.55;;;40.30;;
45274;SDS011;31019;43.780;25.948;2023-02-28T08:17:15;52.10;;;38.47;;
45274;SDS011;31019;43.780;25.948;2023-02-28T08:19:44;53.38;;;42.75;;
45274;SDS011;31019;43.780;25.948;2023-02-28T08:22:11;53.92;;;39.78;;
45274;SDS011;31019;43.780;25.948;2023-02-28T08:24:40;52.75;;;39.47;;
45274;SDS011;31019;43.780;25.948;2023-02-28T08:27:07;52.45;;;41.90;;
45274;SDS011;31019;43.780;25.948;2023-02-28T08:29:36;49.88;;;38.97;;
45274;SDS011;31019;43.780;25.948;2023-02-28T08:32:03;47.90;;;38.60;;
45274;SDS011;31019;43.780;25.948;2023-02-28T08:34:30;51.33;;;39.47;;
45274;SDS011;31019;43.780;25.948;2023-02-28T08:36:57;59.67;;;43.63;;
45274;SDS011;31019;43.780;25.948;2023-02-28T08:39:24;51.33;;;39.45;;
45274;SDS011;31019;43.780;25.948;2023-02-28T08:41:52;60.63;;;45.65;;
45274;SDS011;31019;43.780;25.948;2023-02-28T08:44:19;53.08;;;40.55;;
45274;SDS011;31019;43.780;25.948;2023-02-28T08:46:45;59.42;;;42.20;;
45274;SDS011;31019;43.780;25.948;2023-02-28T08:49:12;52.58;;;39.80;;
45274;SDS011;31019;43.780;25.948;2023-02-28T08:51:39;52.08;;;42.13;;
45274;SDS011;31019;43.780;25.948;2023-02-28T08:54:05;51.83;;;42.78;;
45274;SDS011;31019;43.780;25.948;2023-02-28T08:56:32;51.83;;;41.88;;
45274;SDS011;31019;43.780;25.948;2023-02-28T08:59:00;52.10;;;40.60;;
45274;SDS011;31019;43.780;25.948;2023-02-28T09:01:27;50.90;;;41.03;;
45274;SDS011;31019;43.780;25.948;2023-02-28T09:03:55;44.03;;;36.17;;
45274;SDS011;31019;43.780;25.948;2023-02-28T09:06:23;52.65;;;40.65;;
45274;SDS011;31019;43.780;25.948;2023-02-28T09:08:51;49.63;;;42.80;;
45274;SDS011;31019;43.780;25.948;2023-02-28T09:11:19;51.40;;;41.05;;
45274;SDS011;31019;43.780;25.948;2023-02-28T09:13:45;47.80;;;40.20;;
45274;SDS011;31019;43.780;25.948;2023-02-28T09:16:14;48.25;;;41.33;;
45274;SDS011;31019;43.780;25.948;2023-02-28T09:18:42;55.05;;;43.00;;
45274;SDS011;31019;43.780;25.948;2023-02-28T09:21:10;48.60;;;40.53;;
45274;SDS011;31019;43.780;25.948;2023-02-28T09:23:39;52.17;;;40.53;;
45274;SDS011;31019;43.780;25.948;2023-02-28T09:26:06;52.83;;;41.35;;
45274;SDS011;31019;43.780;25.948;2023-02-28T09:28:33;50.67;;;40.10;;
45274;SDS011;31019;43.780;25.948;2023-02-28T09:31:00;53.75;;;41.35;;
45274;SDS011;31019;43.780;25.948;2023-02-28T09:33:31;51.47;;;43.25;;
45274;SDS011;31019;43.780;25.948;2023-02-28T09:35:59;45.80;;;36.00;;
45274;SDS011;31019;43.780;25.948;2023-02-28T09:38:28;53.03;;;41.47;;
45274;SDS011;31019;43.780;25.948;2023-02-28T09:40:56;51.38;;;42.20;;
45274;SDS011;31019;43.780;25.948;2023-02-28T09:43:25;41.97;;;36.35;;
45274;SDS011;31019;43.780;25.948;2023-02-28T09:45:55;49.60;;;43.58;;
45274;SDS011;31019;43.780;25.948;2023-02-28T09:48:27;51.38;;;41.70;;
45274;SDS011;31019;43.780;25.948;2023-02-28T09:51:00;45.55;;;37.90;;
45274;SDS011;31019;43.780;25.948;2023-02-28T09:53:31;48.30;;;39.53;;
45274;SDS011;31019;43.780;25.948;2023-02-28T09:56:01;47.90;;;38.45;;
45274;SDS011;31019;43.780;25.948;2023-02-28T09:58:32;46.50;;;39.83;;
45274;SDS011;31019;43.780;25.948;2023-02-28T10:01:03;44.40;;;38.53;;
45274;SDS011;31019;43.780;25.948;2023-02-28T10:03:40;49.78;;;40.00;;
45274;SDS011;31019;43.780;25.948;2023-02-28T10:06:13;52.85;;;41.40;;
45274;SDS011;31019;43.780;25.948;2023-02-28T10:08:45;43.10;;;36.28;;
45274;SDS011;31019;43.780;25.948;2023-02-28T10:11:18;48.78;;;39.53;;
45274;SDS011;31019;43.780;25.948;2023-02-28T10:13:52;53.20;;;42.05;;
45274;SDS011;31019;43.780;25.948;2023-02-28T10:16:25;53.22;;;42.95;;
45274;SDS011;31019;43.780;25.948;2023-02-28T10:18:59;48.92;;;38.95;;
45274;SDS011;31019;43.780;25.948;2023-02-28T10:21:31;49.95;;;40.33;;
45274;SDS011;31019;43.780;25.948;2023-02-28T10:26:31;57.78;;;41.53;;
45274;SDS011;31019;43.780;25.948;2023-02-28T10:28:59;63.42;;;42.15;;
45274;SDS011;31019;43.780;25.948;2023-02-28T10:31:27;56.03;;;41.78;;
45274;SDS011;31019;43.780;25.948;2023-02-28T10:33:54;59.15;;;43.20;;
45274;SDS011;31019;43.780;25.948;2023-02-28T10:36:23;53.15;;;41.03;;
45274;SDS011;31019;43.780;25.948;2023-02-28T10:38:50;51.38;;;41.17;;
45274;SDS011;31019;43.780;25.948;2023-02-28T10:41:25;51.78;;;36.47;;
45274;SDS011;31019;43.780;25.948;2023-02-28T10:43:53;56.97;;;43.13;;
45274;SDS011;31019;43.780;25.948;2023-02-28T10:46:39;58.65;;;38.50;;
45274;SDS011;31019;43.780;25.948;2023-02-28T10:49:12;57.38;;;40.72;;
45274;SDS011;31019;43.780;25.948;2023-02-28T10:51:42;48.92;;;39.17;;
45274;SDS011;31019;43.780;25.948;2023-02-28T10:54:16;55.33;;;42.00;;
45274;SDS011;31019;43.780;25.948;2023-02-28T10:56:44;57.45;;;40.67;;
45274;SDS011;31019;43.780;25.948;2023-02-28T10:59:26;55.80;;;40.03;;
45274;SDS011;31019;43.780;25.948;2023-02-28T11:01:54;62.17;;;45.63;;
45274;SDS011;31019;43.780;25.948;2023-02-28T11:04:32;63.58;;;44.58;;
45274;SDS011;31019;43.780;25.948;2023-02-28T11:07:04;59.97;;;47.00;;
45274;SDS011;31019;43.780;25.948;2023-02-28T11:09:33;58.65;;;43.85;;
45274;SDS011;31019;43.780;25.948;2023-02-28T11:12:02;59.90;;;43.22;;
45274;SDS011;31019;43.780;25.948;2023-02-28T11:14:31;61.00;;;42.05;;
45274;SDS011;31019;43.780;25.948;2023-02-28T11:17:13;62.03;;;44.10;;
45274;SDS011;31019;43.780;25.948;2023-02-28T11:19:44;62.00;;;43.55;;
45274;SDS011;31019;43.780;25.948;2023-02-28T11:22:17;60.10;;;41.57;;
45274;SDS011;31019;43.780;25.948;2023-02-28T11:24:47;63.60;;;44.10;;
45274;SDS011;31019;43.780;25.948;2023-02-28T11:30:28;59.70;;;41.58;;
45274;SDS011;31019;43.780;25.948;2023-02-28T11:33:00;62.45;;;44.85;;
45274;SDS011;31019;43.780;25.948;2023-02-28T11:35:28;55.63;;;38.85;;
45274;SDS011;31019;43.780;25.948;2023-02-28T11:37:58;58.90;;;42.47;;
45274;SDS011;31019;43.780;25.948;2023-02-28T11:40:28;58.83;;;44.13;;
45274;SDS011;31019;43.780;25.948;2023-02-28T11:43:02;57.50;;;40.90;;
45274;SDS011;31019;43.780;25.948;2023-02-28T11:45:49;58.33;;;41.80;;
45274;SDS011;31019;43.780;25.948;2023-02-28T11:48:31;56.58;;;41.50;;
45274;SDS011;31019;43.780;25.948;2023-02-28T11:51:06;57.42;;;38.40;;
45274;SDS011;31019;43.780;25.948;2023-02-28T11:53:50;56.17;;;40.13;;
45274;SDS011;31019;43.780;25.948;2023-02-28T11:56:31;54.15;;;39.58;;
45274;SDS011;31019;43.780;25.948;2023-02-28T11:59:05;53.92;;;37.38;;
45274;SDS011;31019;43.780;25.948;2023-02-28T12:01:50;52.67;;;40.05;;
45274;SDS011;31019;43.780;25.948;2023-02-28T12:04:47;54.88;;;40.20;;
45274;SDS011;31019;43.780;25.948;2023-02-28T12:07:22;57.53;;;41.03;;
45274;SDS011;31019;43.780;25.948;2023-02-28T12:10:01;50.95;;;36.15;;
45274;SDS011;31019;43.780;25.948;2023-02-28T12:12:41;61.95;;;41.63;;
45274;SDS011;31019;43.780;25.948;2023-02-28T12:15:17;65.65;;;43.17;;
45274;SDS011;31019;43.780;25.948;2023-02-28T12:18:00;60.58;;;43.03;;
45274;SDS011;31019;43.780;25.948;2023-02-28T12:20:45;59.30;;;42.47;;
45274;SDS011;31019;43.780;25.948;2023-02-28T12:23:21;61.47;;;43.30;;
45274;SDS011;31019;43.780;25.948;2023-02-28T12:26:07;60.30;;;41.08;;
45274;SDS011;31019;43.780;25.948;2023-02-28T12:28:41;59.72;;;45.05;;
45274;SDS011;31019;43.780;25.948;2023-02-28T12:31:14;58.88;;;44.25;;
45274;SDS011;31019;43.780;25.948;2023-02-28T12:36:14;64.90;;;43.17;;
45274;SDS011;31019;43.780;25.948;2023-02-28T12:38:47;62.10;;;44.47;;
45274;SDS011;31019;43.780;25.948;2023-02-28T12:41:19;55.97;;;39.72;;
45274;SDS011;31019;43.780;25.948;2023-02-28T12:43:55;59.78;;;40.20;;
45274;SDS011;31019;43.780;25.948;2023-02-28T12:46:28;53.83;;;39.67;;
45274;SDS011;31019;43.780;25.948;2023-02-28T12:48:59;64.88;;;41.63;;
45274;SDS011;31019;43.780;25.948;2023-02-28T12:51:30;55.75;;;38.85;;
45274;SDS011;31019;43.780;25.948;2023-02-28T12:54:01;59.22;;;41.42;;
45274;SDS011;31019;43.780;25.948;2023-02-28T12:56:41;67.97;;;46.70;;
45274;SDS011;31019;43.780;25.948;2023-02-28T12:59:13;65.35;;;45.50;;
45274;SDS011;31019;43.780;25.948;2023-02-28T13:02:08;61.17;;;45.58;;
45274;SDS011;31019;43.780;25.948;2023-02-28T13:04:55;65.13;;;46.95;;
45274;SDS011;31019;43.780;25.948;2023-02-28T13:10:40;62.67;;;45.83;;
45274;SDS011;31019;43.780;25.948;2023-02-28T13:13:15;65.57;;;45.88;;
45274;SDS011;31019;43.780;25.948;2023-02-28T13:15:56;68.90;;;49.67;;
45274;SDS011;31019;43.780;25.948;2023-02-28T13:18:29;63.53;;;46.33;;
45274;SDS011;31019;43.780;25.948;2023-02-28T13:20:58;65.13;;;49.03;;
45274;SDS011;31019;43.780;25.948;2023-02-28T13:29:25;57.35;;;40.97;;
45274;SDS011;31019;43.780;25.948;2023-02-28T13:35:14;57.97;;;46.47;;
45274;SDS011;31019;43.780;25.948;2023-02-28T13:38:09;54.20;;;43.67;;
45274;SDS011;31019;43.780;25.948;2023-02-28T13:40:43;56.95;;;44.00;;
45274;SDS011;31019;43.780;25.948;2023-02-28T13:43:09;64.57;;;48.70;;
45274;SDS011;31019;43.780;25.948;2023-02-28T13:45:37;67.47;;;47.92;;
45274;SDS011;31019;43.780;25.948;2023-02-28T13:48:14;57.28;;;44.25;;
45274;SDS011;31019;43.780;25.948;2023-02-28T13:50:43;52.15;;;41.47;;
45274;SDS011;31019;43.780;25.948;2023-02-28T13:56:18;58.95;;;40.42;;
45274;SDS011;31019;43.780;25.948;2023-02-28T13:58:59;56.17;;;42.92;;
45274;SDS011;31019;43.780;25.948;2023-02-28T14:01:49;55.63;;;43.80;;
45274;SDS011;31019;43.780;25.948;2023-02-28T14:04:43;53.60;;;39.88;;
45274;SDS011;31019;43.780;25.948;2023-02-28T14:07:17;53.20;;;39.50;;
45274;SDS011;31019;43.780;25.948;2023-02-28T14:09:49;55.40;;;40.92;;
45274;SDS011;31019;43.780;25.948;2023-02-28T14:18:21;49.38;;;38.65;;
45274;SDS011;31019;43.780;25.948;2023-02-28T14:20:52;47.83;;;37.55;;
45274;SDS011;31019;43.780;25.948;2023-02-28T14:26:30;50.38;;;39.92;;
45274;SDS011;31019;43.780;25.948;2023-02-28T14:29:24;55.88;;;43.80;;
45274;SDS011;31019;43.780;25.948;2023-02-28T14:32:03;51.10;;;40.67;;
45274;SDS011;31019;43.780;25.948;2023-02-28T14:34:39;50.53;;;40.30;;
45274;SDS011;31019;43.780;25.948;2023-02-28T14:37:16;58.20;;;42.47;;
45274;SDS011;31019;43.780;25.948;2023-02-28T14:39:49;57.10;;;43.03;;
45274;SDS011;31019;43.780;25.948;2023-02-28T14:42:29;54.60;;;40.40;;
45274;SDS011;31019;43.780;25.948;2023-02-28T14:44:57;55.33;;;41.45;;
45274;SDS011;31019;43.780;25.948;2023-02-28T14:47:25;51.60;;;38.83;;
45274;SDS011;31019;43.780;25.948;2023-02-28T14:49:56;56.78;;;41.28;;
45274;SDS011;31019;43.780;25.948;2023-02-28T14:52:24;53.92;;;42.40;;
45274;SDS011;31019;43.780;25.948;2023-02-28T14:54:55;52.72;;;40.75;;
45274;SDS011;31019;43.780;25.948;2023-02-28T14:57:25;46.17;;;38.80;;
45274;SDS011;31019;43.780;25.948;2023-02-28T14:59:57;53.42;;;39.83;;
45274;SDS011;31019;43.780;25.948;2023-02-28T15:02:25;51.72;;;41.22;;
45274;SDS011;31019;43.780;25.948;2023-02-28T15:04:59;51.28;;;37.75;;
45274;SDS011;31019;43.780;25.948;2023-02-28T15:07:27;45.65;;;37.38;;
45274;SDS011;31019;43.780;25.948;2023-02-28T15:10:11;49.65;;;39.85;;
45274;SDS011;31019;43.780;25.948;2023-02-28T15:12:44;52.72;;;41.53;;
45274;SDS011;31019;43.780;25.948;2023-02-28T15:15:15;48.88;;;38.60;;